SBUG

Rubem Berta Airport

Uruguaiana, Brazil
TAF SBUG 191530Z 1918/2006 24007KT CAVOK TX28/1918Z TN20/2006Z BECMG 1918/1920 20009KT 9999 SCT030 RMK PER
Issued Valid From Valid To
Sep-19 @ 15:30 UTC
(9 hours ago)
Sep-19 @ 18:00 UTC
(7 hours ago)
Sep-20 @ 06:00 UTC
(in 5 hours)
Sep-19 @ 18:00 to Sep-20 @ 06:00
TAF SBUG 191530Z 1918/2006 24007KT CAVOK TX28/1918Z TN20/2006Z
Wind Visibility Clouds
240° at 7 knots 10,000+ meters
  • No significant clouds
Becoming Sep-19 @ 18:00 to Sep-20 @ 06:00
BECMG 1918/1920 20009KT 9999 SCT030 RMK PER
Wind Visibility Clouds
200° at 9 knots 10,000+ meters
  • Scattered at 3,000' AGL
TAF SBUG 191530Z 1918/2006 24007KT CAVOK TX28/1918Z TN20/2006Z BECMG 1918/1920 20009KT 9999 SCT030 RMK PER
Issued Sep-19 @ 15:30 UTC
(9 hours ago)
Valid From Sep-19 @ 18:00 UTC
(7 hours ago)
Valid To Sep-20 @ 06:00 UTC
(in 5 hours)
Sep-19 @ 18:00 - Sep-20 @ 06:00
Wind Visibility
240° at 7 knots 10,000+ meters
Clouds
  • No significant clouds
Becoming Sep-19 @ 18:00 - Sep-20 @ 06:00
Wind Visibility
200° at 9 knots 10,000+ meters
Clouds
  • Scattered at 3,000' AGL